ADDS METAR Data INFO
IDs: Format: Raw Decoded Include TAF

Data at: 0856 UTC 18 Aug 2017

METAR for:KSJC (San Jose Intl Arpt, CA, US)
Text:KSJC 180853Z AUTO 31004KT 10SM CLR 17/15 A3000 RMK AO2 SLP157 T01720150 58001
Temperature: 17.2°C ( 63°F)
Dewpoint: 15.0°C ( 59°F) [RH = 87%]
Pressure (altimeter):30.00 inches Hg (1016.0 mb) [Sea level pressure: 1015.7 mb]
Winds:from the NW (310 degrees) at 5 MPH (4 knots; 2.1 m/s)
Visibility:10 or more sm (16+ km)
Ceiling:at least 12,000 feet AGL
Clouds:sky clear below 12,000 feet AGL
QC Flag:automated observation with no human augmentation
Text:KSJC 180753Z AUTO 31005KT 10SM CLR 18/15 A3000 RMK AO2 SLP159 T01780150 402720156
Temperature: 17.8°C ( 64°F)
Dewpoint: 15.0°C ( 59°F) [RH = 84%]
Pressure (altimeter):30.00 inches Hg (1016.0 mb) [Sea level pressure: 1015.9 mb]
Winds:from the NW (310 degrees) at 6 MPH (5 knots; 2.6 m/s)
Visibility:10 or more sm (16+ km)
Ceiling:at least 12,000 feet AGL
Clouds:sky clear below 12,000 feet AGL
QC Flag:automated observation with no human augmentation
Text:KSJC 180653Z 29005KT 10SM CLR 18/14 A3000 RMK AO2 SLP158 LAST T01780144
Temperature: 17.8°C ( 64°F)
Dewpoint: 14.4°C ( 58°F) [RH = 80%]
Pressure (altimeter):30.00 inches Hg (1016.0 mb) [Sea level pressure: 1015.8 mb]
Winds:from the WNW (290 degrees) at 6 MPH (5 knots; 2.6 m/s)
Visibility:10 or more sm (16+ km)
Ceiling:at least 12,000 feet AGL
Clouds:sky clear below 12,000 feet AGL
Text:KSJC 180553Z 30007KT 10SM CLR 19/14 A3000 RMK AO2 SLP158 T01890144 10261 20189 51012
Temperature: 18.9°C ( 66°F)
Dewpoint: 14.4°C ( 58°F) [RH = 75%]
Pressure (altimeter):30.00 inches Hg (1016.0 mb) [Sea level pressure: 1015.8 mb]
Winds:from the WNW (300 degrees) at 8 MPH (7 knots; 3.6 m/s)
Visibility:10 or more sm (16+ km)
Ceiling:at least 12,000 feet AGL
Clouds:sky clear below 12,000 feet AGL
Text:KSJC 180453Z 28006KT 10SM CLR 19/14 A2999 RMK AO2 SLP155 T01940144
Temperature: 19.4°C ( 67°F)
Dewpoint: 14.4°C ( 58°F) [RH = 73%]
Pressure (altimeter):29.99 inches Hg (1015.7 mb) [Sea level pressure: 1015.5 mb]
Winds:from the W (280 degrees) at 7 MPH (6 knots; 3.1 m/s)
Visibility:10 or more sm (16+ km)
Ceiling:at least 12,000 feet AGL
Clouds:sky clear below 12,000 feet AGL
Text:KSJC 180353Z 28007KT 10SM CLR 20/14 A2998 RMK AO2 SLP150 T02000144
Temperature: 20.0°C ( 68°F)
Dewpoint: 14.4°C ( 58°F) [RH = 70%]
Pressure (altimeter):29.98 inches Hg (1015.3 mb) [Sea level pressure: 1015.0 mb]
Winds:from the W (280 degrees) at 8 MPH (7 knots; 3.6 m/s)
Visibility:10 or more sm (16+ km)
Ceiling:at least 12,000 feet AGL
Clouds:sky clear below 12,000 feet AGL
Text:KSJC 180253Z 29007KT 10SM FEW055 21/15 A2997 RMK AO2 SLP146 T02110150 53007
Temperature: 21.1°C ( 70°F)
Dewpoint: 15.0°C ( 59°F) [RH = 68%]
Pressure (altimeter):29.97 inches Hg (1015.0 mb) [Sea level pressure: 1014.6 mb]
Winds:from the WNW (290 degrees) at 8 MPH (7 knots; 3.6 m/s)
Visibility:10 or more sm (16+ km)
Ceiling:at least 12,000 feet AGL
Clouds: few clouds at 5500 feet AGL
Text:KSJC 180153Z 28011KT 10SM FEW055 22/16 A2995 RMK AO2 SLP142 T02220161
Temperature: 22.2°C ( 72°F)
Dewpoint: 16.1°C ( 61°F) [RH = 68%]
Pressure (altimeter):29.95 inches Hg (1014.3 mb) [Sea level pressure: 1014.2 mb]
Winds:from the W (280 degrees) at 13 MPH (11 knots; 5.7 m/s)
Visibility:10 or more sm (16+ km)
Ceiling:at least 12,000 feet AGL
Clouds: few clouds at 5500 feet AGL
Text:KSJC 180053Z 30011KT 10SM FEW055 24/16 A2995 RMK AO2 SLP139 T02440161
Temperature: 24.4°C ( 76°F)
Dewpoint: 16.1°C ( 61°F) [RH = 60%]
Pressure (altimeter):29.95 inches Hg (1014.3 mb) [Sea level pressure: 1013.9 mb]
Winds:from the WNW (300 degrees) at 13 MPH (11 knots; 5.7 m/s)
Visibility:10 or more sm (16+ km)
Ceiling:at least 12,000 feet AGL
Clouds: few clouds at 5500 feet AGL
Text:KSJC 172353Z 30011KT 10SM FEW055 26/16 A2994 RMK AO2 SLP139 T02610156 10272 20222 58015
Temperature: 26.1°C ( 79°F)
Dewpoint: 15.6°C ( 60°F) [RH = 52%]
Pressure (altimeter):29.94 inches Hg (1014.0 mb) [Sea level pressure: 1013.9 mb]
Winds:from the WNW (300 degrees) at 13 MPH (11 knots; 5.7 m/s)
Visibility:10 or more sm (16+ km)
Ceiling:at least 12,000 feet AGL
Clouds: few clouds at 5500 feet AGL
Text:KSJC 172253Z 29010KT 10SM CLR 27/16 A2996 RMK AO2 SLP143 T02670161
Temperature: 26.7°C ( 80°F)
Dewpoint: 16.1°C ( 61°F) [RH = 52%]
Pressure (altimeter):29.96 inches Hg (1014.6 mb) [Sea level pressure: 1014.3 mb]
Winds:from the WNW (290 degrees) at 12 MPH (10 knots; 5.1 m/s)
Visibility:10 or more sm (16+ km)
Ceiling:at least 12,000 feet AGL
Clouds:sky clear below 12,000 feet AGL
Text:KSJC 172153Z 31010KT 10SM CLR 27/16 A2998 RMK AO2 SLP150 T02670161
Temperature: 26.7°C ( 80°F)
Dewpoint: 16.1°C ( 61°F) [RH = 52%]
Pressure (altimeter):29.98 inches Hg (1015.3 mb) [Sea level pressure: 1015.0 mb]
Winds:from the NW (310 degrees) at 12 MPH (10 knots; 5.1 m/s)
Visibility:10 or more sm (16+ km)
Ceiling:at least 12,000 feet AGL
Clouds:sky clear below 12,000 feet AGL